sensor_id;sensor_type;location;lat;lon;timestamp;pressure;altitude;pressure_sealevel;temperature;humidity
7182;BME280;3632;42.724;23.298;2022-12-31T00:15:07;96371.13;;;5.79;91.97
7182;BME280;3632;42.724;23.298;2022-12-31T00:17:51;96117.66;;;4.37;92.89
7182;BME280;3632;42.724;23.298;2022-12-31T00:50:25;96447.66;;;5.84;94.69
7182;BME280;3632;42.724;23.298;2022-12-31T01:11:12;96369.28;;;5.82;93.47
7182;BME280;3632;42.724;23.298;2022-12-31T01:14:11;96043.59;;;3.32;92.76
7182;BME280;3632;42.724;23.298;2022-12-31T01:17:07;96241.53;;;4.31;92.63
7182;BME280;3632;42.724;23.298;2022-12-31T01:22:25;96605.06;;;6.34;94.43
7182;BME280;3632;42.724;23.298;2022-12-31T01:25:05;96231.59;;;4.48;94.03
7182;BME280;3632;42.724;23.298;2022-12-31T01:27:43;96213.53;;;3.93;94.53
7182;BME280;3632;42.724;23.298;2022-12-31T01:30:19;96060.53;;;2.59;96.11
7182;BME280;3632;42.724;23.298;2022-12-31T01:32:50;95915.31;;;2.16;97.74
7182;BME280;3632;42.724;23.298;2022-12-31T01:35:27;96007.88;;;2.29;96.70
7182;BME280;3632;42.724;23.298;2022-12-31T01:38:04;96472.94;;;5.20;96.18
7182;BME280;3632;42.724;23.298;2022-12-31T01:40:42;95962.59;;;2.76;94.24
7182;BME280;3632;42.724;23.298;2022-12-31T01:43:22;96315.44;;;4.56;93.82
7182;BME280;3632;42.724;23.298;2022-12-31T02:02:06;96501.88;;;6.39;92.07
7182;BME280;3632;42.724;23.298;2022-12-31T02:12:50;96190.38;;;4.47;93.28
7182;BME280;3632;42.724;23.298;2022-12-31T02:56:41;96020.91;;;2.41;90.27
7182;BME280;3632;42.724;23.298;2022-12-31T03:12:31;96021.88;;;1.87;94.53
7182;BME280;3632;42.724;23.298;2022-12-31T03:15:34;96409.03;;;4.73;95.43
7182;BME280;3632;42.724;23.298;2022-12-31T03:18:26;96370.56;;;3.98;95.89
7182;BME280;3632;42.724;23.298;2022-12-31T03:21:18;96589.63;;;5.31;96.01
7182;BME280;3632;42.724;23.298;2022-12-31T03:24:08;96546.81;;;5.27;96.29
7182;BME280;3632;42.724;23.298;2022-12-31T03:26:59;96117.50;;;1.82;97.24
7182;BME280;3632;42.724;23.298;2022-12-31T03:29:57;96494.66;;;4.33;96.61
7182;BME280;3632;42.724;23.298;2022-12-31T03:40:30;95906.41;;;1.33;95.92
7182;BME280;3632;42.724;23.298;2022-12-31T03:46:02;96046.38;;;1.54;95.65
7182;BME280;3632;42.724;23.298;2022-12-31T03:48:48;96017.19;;;2.03;95.36
7182;BME280;3632;42.724;23.298;2022-12-31T03:51:49;96654.75;;;5.25;95.63
7182;BME280;3632;42.724;23.298;2022-12-31T03:54:33;96266.38;;;3.00;95.13
7182;BME280;3632;42.724;23.298;2022-12-31T03:57:15;96478.25;;;4.44;94.66
7182;BME280;3632;42.724;23.298;2022-12-31T04:09:00;96616.00;;;4.76;92.73
7182;BME280;3632;42.724;23.298;2022-12-31T04:11:37;96308.91;;;3.34;93.42
7182;BME280;3632;42.724;23.298;2022-12-31T04:14:21;96355.44;;;3.49;94.92
7182;BME280;3632;42.724;23.298;2022-12-31T04:19:45;96132.69;;;2.07;95.41
7182;BME280;3632;42.724;23.298;2022-12-31T04:22:30;96291.16;;;3.37;96.99
7182;BME280;3632;42.724;23.298;2022-12-31T04:25:30;96427.47;;;4.05;96.11
7182;BME280;3632;42.724;23.298;2022-12-31T04:28:08;96619.25;;;5.04;96.05
7182;BME280;3632;42.724;23.298;2022-12-31T04:30:52;96036.66;;;1.44;95.69
7182;BME280;3632;42.724;23.298;2022-12-31T04:33:27;96641.31;;;5.23;96.24
7182;BME280;3632;42.724;23.298;2022-12-31T04:36:03;96042.06;;;1.58;94.35
7182;BME280;3632;42.724;23.298;2022-12-31T04:38:42;95972.56;;;1.58;94.36
7182;BME280;3632;42.724;23.298;2022-12-31T04:41:23;96291.41;;;3.30;92.71
7182;BME280;3632;42.724;23.298;2022-12-31T04:44:03;96494.00;;;4.28;92.82
7182;BME280;3632;42.724;23.298;2022-12-31T04:49:23;96244.81;;;2.13;93.38
7182;BME280;3632;42.724;23.298;2022-12-31T04:52:05;96058.34;;;1.18;93.46
7182;BME280;3632;42.724;23.298;2022-12-31T04:54:39;95974.41;;;0.99;93.97
7182;BME280;3632;42.724;23.298;2022-12-31T04:57:19;96288.16;;;1.92;95.10
7182;BME280;3632;42.724;23.298;2022-12-31T04:59:57;96307.88;;;2.35;96.37
7182;BME280;3632;42.724;23.298;2022-12-31T05:02:37;96028.03;;;0.36;96.15
7182;BME280;3632;42.724;23.298;2022-12-31T05:05:14;96078.94;;;0.71;97.60
7182;BME280;3632;42.724;23.298;2022-12-31T05:07:51;96311.81;;;2.15;95.74
7182;BME280;3632;42.724;23.298;2022-12-31T05:10:24;96273.47;;;2.63;94.77
7182;BME280;3632;42.724;23.298;2022-12-31T05:15:56;96604.16;;;4.78;94.30
7182;BME280;3632;42.724;23.298;2022-12-31T05:18:47;96221.59;;;2.33;93.46
7182;BME280;3632;42.724;23.298;2022-12-31T05:21:25;96240.53;;;2.16;93.27
7182;BME280;3632;42.724;23.298;2022-12-31T05:34:43;96149.53;;;0.23;95.96
7182;BME280;3632;42.724;23.298;2022-12-31T05:50:43;96041.91;;;0.48;96.24
7182;BME280;3632;42.724;23.298;2022-12-31T05:53:35;96692.16;;;4.39;96.48
7182;BME280;3632;42.724;23.298;2022-12-31T05:56:31;96579.19;;;3.67;96.61
7182;BME280;3632;42.724;23.298;2022-12-31T05:59:22;96617.25;;;4.40;95.22
7182;BME280;3632;42.724;23.298;2022-12-31T06:02:02;96046.81;;;0.53;93.71
7182;BME280;3632;42.724;23.298;2022-12-31T06:04:45;96316.97;;;2.39;92.81
7182;BME280;3632;42.724;23.298;2022-12-31T06:10:16;96557.38;;;3.66;91.84
7182;BME280;3632;42.724;23.298;2022-12-31T06:12:46;96641.34;;;4.24;93.78
7182;BME280;3632;42.724;23.298;2022-12-31T06:18:13;96599.16;;;3.17;93.93
7182;BME280;3632;42.724;23.298;2022-12-31T06:23:53;96650.78;;;4.17;96.22
7182;BME280;3632;42.724;23.298;2022-12-31T06:26:41;96133.13;;;0.45;96.05
7182;BME280;3632;42.724;23.298;2022-12-31T06:29:32;96408.47;;;2.05;95.15
7182;BME280;3632;42.724;23.298;2022-12-31T06:32:27;96141.16;;;0.58;94.83
7182;BME280;3632;42.724;23.298;2022-12-31T06:35:10;96460.94;;;3.33;93.61
7182;BME280;3632;42.724;23.298;2022-12-31T06:37:48;96664.22;;;4.70;94.53
7182;BME280;3632;42.724;23.298;2022-12-31T06:40:21;96307.69;;;2.41;94.71
7182;BME280;3632;42.724;23.298;2022-12-31T06:43:21;96444.47;;;3.49;93.88
7182;BME280;3632;42.724;23.298;2022-12-31T06:46:19;96682.31;;;5.07;93.36
7182;BME280;3632;42.724;23.298;2022-12-31T06:49:06;96349.03;;;2.88;92.78
7182;BME280;3632;42.724;23.298;2022-12-31T06:51:48;96461.03;;;3.83;92.54
7182;BME280;3632;42.724;23.298;2022-12-31T07:08:30;96333.06;;;3.40;90.86
7182;BME280;3632;42.724;23.298;2022-12-31T09:32:13;96678.66;;;12.41;63.33
7182;BME280;3632;42.724;23.298;2022-12-31T10:28:04;96367.38;;;15.73;47.42
7182;BME280;3632;42.724;23.298;2022-12-31T10:33:35;96352.13;;;15.61;47.17
7182;BME280;3632;42.724;23.298;2022-12-31T10:36:10;96379.72;;;16.00;46.55
7182;BME280;3632;42.724;23.298;2022-12-31T10:38:50;96476.03;;;16.69;46.23
7182;BME280;3632;42.724;23.298;2022-12-31T10:50:55;96560.25;;;20.13;41.20
7182;BME280;3632;42.724;23.298;2022-12-31T10:54:01;96392.28;;;20.10;39.55
7182;BME280;3632;42.724;23.298;2022-12-31T11:00:11;96473.94;;;22.81;35.65
7182;BME280;3632;42.724;23.298;2022-12-31T11:06:22;96552.56;;;24.46;33.07
7182;BME280;3632;42.724;23.298;2022-12-31T11:12:22;96535.00;;;26.52;30.39
7182;BME280;3632;42.724;23.298;2022-12-31T11:18:03;96525.19;;;27.44;29.53
7182;BME280;3632;42.724;23.298;2022-12-31T11:20:51;96499.09;;;27.57;28.33
7182;BME280;3632;42.724;23.298;2022-12-31T11:23:30;96519.63;;;28.14;28.56
7182;BME280;3632;42.724;23.298;2022-12-31T11:26:09;96516.88;;;28.75;28.13
7182;BME280;3632;42.724;23.298;2022-12-31T11:28:49;96495.88;;;28.42;27.70
7182;BME280;3632;42.724;23.298;2022-12-31T11:31:36;96517.44;;;28.90;28.00
7182;BME280;3632;42.724;23.298;2022-12-31T11:34:17;96407.06;;;28.46;27.15
7182;BME280;3632;42.724;23.298;2022-12-31T11:37:00;96522.19;;;29.46;26.92
7182;BME280;3632;42.724;23.298;2022-12-31T11:39:42;96509.09;;;29.84;26.04
7182;BME280;3632;42.724;23.298;2022-12-31T11:42:19;96505.03;;;29.43;26.39
7182;BME280;3632;42.724;23.298;2022-12-31T11:44:54;96491.81;;;30.08;26.17
7182;BME280;3632;42.724;23.298;2022-12-31T11:47:43;96487.75;;;29.67;26.31
7182;BME280;3632;42.724;23.298;2022-12-31T11:50:26;96456.69;;;29.58;25.90
7182;BME280;3632;42.724;23.298;2022-12-31T11:52:58;96489.13;;;29.12;26.78
7182;BME280;3632;42.724;23.298;2022-12-31T11:55:40;96485.06;;;29.36;26.58
7182;BME280;3632;42.724;23.298;2022-12-31T11:58:13;96489.03;;;29.52;26.78
7182;BME280;3632;42.724;23.298;2022-12-31T12:00:49;96492.72;;;29.24;26.28
7182;BME280;3632;42.724;23.298;2022-12-31T12:03:18;96428.91;;;29.30;26.49
7182;BME280;3632;42.724;23.298;2022-12-31T12:05:44;96493.19;;;30.17;25.82
7182;BME280;3632;42.724;23.298;2022-12-31T12:08:11;96451.63;;;28.92;26.55
7182;BME280;3632;42.724;23.298;2022-12-31T12:10:41;96494.59;;;29.75;26.54
7182;BME280;3632;42.724;23.298;2022-12-31T12:13:13;96493.72;;;29.87;26.12
7182;BME280;3632;42.724;23.298;2022-12-31T12:15:48;96523.19;;;30.03;26.06
7182;BME280;3632;42.724;23.298;2022-12-31T12:18:25;96489.34;;;31.12;25.81
7182;BME280;3632;42.724;23.298;2022-12-31T12:21:00;96496.75;;;31.21;25.32
7182;BME280;3632;42.724;23.298;2022-12-31T12:23:28;96498.81;;;31.01;25.49
7182;BME280;3632;42.724;23.298;2022-12-31T12:25:55;96491.50;;;31.21;24.94
7182;BME280;3632;42.724;23.298;2022-12-31T12:28:23;96282.88;;;29.23;25.59
7182;BME280;3632;42.724;23.298;2022-12-31T12:30:57;96450.50;;;30.89;25.07
7182;BME280;3632;42.724;23.298;2022-12-31T12:33:25;96315.75;;;29.63;25.32
7182;BME280;3632;42.724;23.298;2022-12-31T12:35:52;96500.31;;;30.34;25.67
7182;BME280;3632;42.724;23.298;2022-12-31T12:38:20;96511.09;;;30.58;25.22
7182;BME280;3632;42.724;23.298;2022-12-31T12:40:55;96491.31;;;30.73;25.53
7182;BME280;3632;42.724;23.298;2022-12-31T12:43:24;96495.91;;;30.28;25.91
7182;BME280;3632;42.724;23.298;2022-12-31T12:45:53;96449.13;;;30.62;25.25
7182;BME280;3632;42.724;23.298;2022-12-31T12:48:30;96499.56;;;29.96;25.85
7182;BME280;3632;42.724;23.298;2022-12-31T12:50:59;96469.00;;;28.67;26.73
7182;BME280;3632;42.724;23.298;2022-12-31T12:53:37;96495.22;;;28.99;26.86
7182;BME280;3632;42.724;23.298;2022-12-31T12:56:18;96501.19;;;29.46;26.84
7182;BME280;3632;42.724;23.298;2022-12-31T12:59:00;96389.31;;;29.25;25.88
7182;BME280;3632;42.724;23.298;2022-12-31T13:01:40;96502.63;;;29.93;25.93
7182;BME280;3632;42.724;23.298;2022-12-31T13:04:28;96500.22;;;30.54;25.70
7182;BME280;3632;42.724;23.298;2022-12-31T13:07:20;96497.06;;;30.08;26.14
7182;BME280;3632;42.724;23.298;2022-12-31T13:10:09;96500.25;;;29.78;26.47
7182;BME280;3632;42.724;23.298;2022-12-31T13:12:44;96506.06;;;29.42;27.27
7182;BME280;3632;42.724;23.298;2022-12-31T13:15:16;96502.22;;;29.38;26.71
7182;BME280;3632;42.724;23.298;2022-12-31T13:17:50;96508.41;;;29.64;26.67
7182;BME280;3632;42.724;23.298;2022-12-31T13:20:27;96515.19;;;30.54;25.42
7182;BME280;3632;42.724;23.298;2022-12-31T13:22:59;96510.25;;;31.32;25.67
7182;BME280;3632;42.724;23.298;2022-12-31T13:25:37;96460.44;;;31.42;24.88
7182;BME280;3632;42.724;23.298;2022-12-31T13:28:11;96399.72;;;30.64;25.18
7182;BME280;3632;42.724;23.298;2022-12-31T13:30:40;96534.06;;;31.00;25.33
7182;BME280;3632;42.724;23.298;2022-12-31T13:33:15;96512.31;;;29.99;26.07
7182;BME280;3632;42.724;23.298;2022-12-31T13:35:47;96510.53;;;29.16;27.16
7182;BME280;3632;42.724;23.298;2022-12-31T13:38:17;96514.59;;;29.18;27.33
7182;BME280;3632;42.724;23.298;2022-12-31T13:40:50;96513.63;;;28.86;27.82
7182;BME280;3632;42.724;23.298;2022-12-31T13:43:24;96514.59;;;29.05;27.90
7182;BME280;3632;42.724;23.298;2022-12-31T13:46:03;96510.16;;;29.12;27.11
7182;BME280;3632;42.724;23.298;2022-12-31T13:48:34;96411.28;;;28.80;26.66
7182;BME280;3632;42.724;23.298;2022-12-31T13:51:11;96459.28;;;29.07;26.28
7182;BME280;3632;42.724;23.298;2022-12-31T13:53:45;96500.03;;;29.22;26.51
7182;BME280;3632;42.724;23.298;2022-12-31T13:56:18;96447.97;;;28.99;26.32
7182;BME280;3632;42.724;23.298;2022-12-31T13:58:53;96205.66;;;27.05;26.43
7182;BME280;3632;42.724;23.298;2022-12-31T14:01:25;96335.16;;;27.28;26.57
7182;BME280;3632;42.724;23.298;2022-12-31T14:04:00;96523.94;;;28.75;26.93
7182;BME280;3632;42.724;23.298;2022-12-31T14:06:36;96517.22;;;28.52;27.29
7182;BME280;3632;42.724;23.298;2022-12-31T14:09:04;96510.47;;;27.97;27.97
7182;BME280;3632;42.724;23.298;2022-12-31T14:11:44;96516.09;;;26.29;29.54
7182;BME280;3632;42.724;23.298;2022-12-31T14:14:23;96471.91;;;23.85;32.80
7182;BME280;3632;42.724;23.298;2022-12-31T14:17:00;96404.34;;;21.87;35.22
7182;BME280;3632;42.724;23.298;2022-12-31T14:19:43;96603.53;;;21.43;37.58
7182;BME280;3632;42.724;23.298;2022-12-31T14:22:19;96325.31;;;19.28;38.81
7182;BME280;3632;42.724;23.298;2022-12-31T14:24:50;96541.00;;;19.80;40.74
7182;BME280;3632;42.724;23.298;2022-12-31T14:27:21;96292.59;;;17.54;42.05
7182;BME280;3632;42.724;23.298;2022-12-31T19:57:43;96814.94;;;7.88;82.77
7182;BME280;3632;42.724;23.298;2022-12-31T20:13:33;96813.66;;;7.59;83.30
7182;BME280;3632;42.724;23.298;2022-12-31T21:05:23;96326.06;;;3.23;86.41
7182;BME280;3632;42.724;23.298;2022-12-31T21:16:16;96458.97;;;4.19;87.29
7182;BME280;3632;42.724;23.298;2022-12-31T21:45:11;96764.06;;;4.80;94.93
7182;BME280;3632;42.724;23.298;2022-12-31T21:58:29;96584.50;;;4.12;89.73
7182;BME280;3632;42.724;23.298;2022-12-31T22:01:27;96587.97;;;4.34;89.71
7182;BME280;3632;42.724;23.298;2022-12-31T22:04:12;96332.22;;;2.62;88.63
7182;BME280;3632;42.724;23.298;2022-12-31T22:06:48;96830.91;;;6.20;88.85
7182;BME280;3632;42.724;23.298;2022-12-31T22:11:56;96925.38;;;6.22;89.62
7182;BME280;3632;42.724;23.298;2022-12-31T22:14:43;96631.88;;;5.04;89.46
7182;BME280;3632;42.724;23.298;2022-12-31T22:17:35;96828.69;;;6.13;89.31
7182;BME280;3632;42.724;23.298;2022-12-31T22:20:27;96419.41;;;3.18;88.31
7182;BME280;3632;42.724;23.298;2022-12-31T22:23:12;96904.66;;;6.36;89.40
7182;BME280;3632;42.724;23.298;2022-12-31T22:25:48;96786.75;;;6.06;88.14
7182;BME280;3632;42.724;23.298;2022-12-31T22:28:32;96307.63;;;2.70;87.78
7182;BME280;3632;42.724;23.298;2022-12-31T22:33:53;96566.22;;;4.05;86.15
7182;BME280;3632;42.724;23.298;2022-12-31T22:41:35;96424.88;;;3.05;87.50
7182;BME280;3632;42.724;23.298;2022-12-31T22:44:16;96371.63;;;3.17;87.13
7182;BME280;3632;42.724;23.298;2022-12-31T22:47:02;96402.78;;;2.87;88.12
7182;BME280;3632;42.724;23.298;2022-12-31T23:00:05;96801.56;;;5.68;91.78
7182;BME280;3632;42.724;23.298;2022-12-31T23:16:00;96656.16;;;5.09;93.95
7182;BME280;3632;42.724;23.298;2022-12-31T23:24:10;96552.59;;;3.57;87.99
7182;BME280;3632;42.724;23.298;2022-12-31T23:30:03;96294.34;;;2.11;87.71
7182;BME280;3632;42.724;23.298;2022-12-31T23:33:16;96764.25;;;5.00;88.96
7182;BME280;3632;42.724;23.298;2022-12-31T23:36:02;96157.97;;;1.75;90.16
7182;BME280;3632;42.724;23.298;2022-12-31T23:38:44;96199.97;;;1.99;89.70
7182;BME280;3632;42.724;23.298;2022-12-31T23:44:11;96456.59;;;3.10;90.28
7182;BME280;3632;42.724;23.298;2022-12-31T23:47:07;96205.91;;;1.69;90.68
